This is the latest recevied weather packets stored in our database for station/object K2ATL. If no packets are shown the sender has not sent any weather packets the latest 10 day(s).
| Time | Temp. | Humidity | Pressure | Rain* | Wind** | Luminosity | Snow |
|---|---|---|---|---|---|---|---|
| 1788118599 | 30.56° C | 60% | 1106.9 hPa | 0 mm | - | 823 W/m² | - |
| 1788118298 | 32.22° C | 56% | 1107.2 hPa | 0 mm | - | 226 W/m² | - |
| 1788117995 | 30.56° C | 58% | 1107.1 hPa | 0 mm | - | 888 W/m² | - |
| 1788117695 | 30° C | 59% | 1107.1 hPa | 0 mm | - | 886 W/m² | - |
| 1788117390 | 28.89° C | 62% | 1107.3 hPa | 0 mm | - | 867 W/m² | - |
| 1788117085 | 26.67° C | 63% | 1107.2 hPa | 0 mm | - | 869 W/m² | - |
| 1788116781 | 28.89° C | 61% | 1107.4 hPa | 0 mm | - | 859 W/m² | - |
| 1788116476 | 29.44° C | 59% | 1107.3 hPa | 0 mm | - | 870 W/m² | - |
| 1788116174 | 28.89° C | 65% | 1107.2 hPa | 0 mm | - | 875 W/m² | - |
| 1788115871 | 27.78° C | 67% | 1107.4 hPa | 0 mm | - | 875 W/m² | - |
| 1788115570 | 27.22° C | 71% | 1107.6 hPa | 0 mm | - | 887 W/m² | - |
| 1788115270 | 26.67° C | 70% | 1107.8 hPa | 0 mm | - | 907 W/m² | - |
| 1788114964 | 27.78° C | 70% | 1108 hPa | 0 mm | - | 905 W/m² | - |
| 1788114660 | 30.56° C | 62% | 1108.1 hPa | 0 mm | - | 145 W/m² | - |
| 1788114355 | 27.78° C | 70% | 1108.3 hPa | 0 mm | - | 919 W/m² | - |
| 1788114052 | 27.78° C | 66% | 1108.1 hPa | 0 mm | - | 922 W/m² | - |
| 1788113748 | 28.33° C | 70% | 1108.2 hPa | 0 mm | - | 918 W/m² | - |
| 1788113447 | 27.22° C | 68% | 1108.3 hPa | 0 mm | - | 932 W/m² | - |
| 1788113146 | 26.67° C | 69% | 1108.2 hPa | 0 mm | - | 956 W/m² | - |
| 1788112846 | 29.44° C | 68% | 1108.2 hPa | 0 mm | - | 181 W/m² | - |
| 1788112545 | 27.22° C | 68% | 1108.4 hPa | 0 mm | - | 510 W/m² | - |
| 1788112240 | 28.33° C | 67% | 1108.2 hPa | 0 mm | - | 338 W/m² | - |
| 1788111936 | 27.78° C | 68% | 1108.3 hPa | 0 mm | - | 992 W/m² | - |
| 1788111631 | 28.33° C | 67% | 1108.4 hPa | 0 mm | - | 967 W/m² | - |
| 1788111326 | 27.22° C | 68% | 1108.5 hPa | 0 mm | - | 945 W/m² | - |
* Rain latest hour (hover to see other rain measurements)
** Current wind speed in m/s (hover to see current wind gust speed)